This is the latest recevied weather packets stored in our database for station/object KC5DAQ-24. If no packets are shown the sender has not sent any weather packets the latest 1 day(s).
| Time | Temp. | Humidity | Pressure | Rain* | Wind** | Luminosity | Snow |
|---|---|---|---|---|---|---|---|
| 1778030132 | 26.11° C | 83% | 1006.1 hPa | 0 mm | 2.24 m/s, 0° | 0 W/m² | - |
| 1778030072 | 26.11° C | 83% | 1006.1 hPa | 0 mm | 2.24 m/s, 0° | 0 W/m² | - |
| 1778030013 | 26.67° C | 83% | 1006 hPa | 0 mm | 2.24 m/s, 0° | 0 W/m² | - |
| 1778029952 | 26.67° C | 83% | 1006.1 hPa | 0 mm | 1.34 m/s, 0° | 0 W/m² | - |
| 1778029891 | 26.67° C | 83% | 1006 hPa | 0 mm | 0.89 m/s, 0° | 0 W/m² | - |
| 1778029832 | 26.67° C | 80% | 1006 hPa | 0 mm | 0.89 m/s, 0° | - | - |
| 1778027781 | 26.67° C | 80% | 1005.7 hPa | 0 mm | 1.34 m/s, 0° | 18 W/m² | - |
| 1778027721 | 26.67° C | 80% | 1005.7 hPa | 0 mm | 1.34 m/s, 0° | 18 W/m² | - |
| 1778027660 | 26.67° C | 80% | 1005.7 hPa | 0 mm | 1.34 m/s, 0° | 18 W/m² | - |
| 1778027600 | 26.67° C | 80% | 1005.8 hPa | 0 mm | 1.34 m/s, 0° | 18 W/m² | - |
| 1778027538 | 26.67° C | 80% | 1005.7 hPa | 0 mm | 1.34 m/s, 0° | 18 W/m² | - |
| 1778027479 | 26.67° C | 80% | 1005.7 hPa | 0 mm | 1.34 m/s, 0° | 18 W/m² | - |
| 1778027418 | 26.67° C | 80% | 1005.7 hPa | 0 mm | 1.34 m/s, 0° | 18 W/m² | - |
| 1778027359 | 26.67° C | 80% | 1005.8 hPa | 0 mm | 1.34 m/s, 0° | 18 W/m² | - |
| 1778027299 | 26.67° C | 80% | 1005.6 hPa | 0 mm | 1.34 m/s, 0° | 18 W/m² | - |
| 1778027239 | 26.67° C | 80% | 1005.7 hPa | 0 mm | 1.34 m/s, 0° | 18 W/m² | - |
| 1778027177 | 26.67° C | 80% | 1005.7 hPa | 0 mm | 2.24 m/s, 0° | 18 W/m² | - |
| 1778027118 | 26.67° C | 80% | 1005.7 hPa | 0 mm | 1.79 m/s, 0° | 19 W/m² | - |
| 1778027059 | 26.67° C | 80% | 1005.7 hPa | 0 mm | 2.24 m/s, 0° | 21 W/m² | - |
| 1778026998 | 26.67° C | 80% | 1005.7 hPa | 0 mm | 1.79 m/s, 0° | 23 W/m² | - |
| 1778026939 | 26.67° C | 80% | 1005.7 hPa | 0 mm | 1.34 m/s, 0° | 23 W/m² | - |
| 1778026863 | 26.67° C | 80% | 1005.6 hPa | 0 mm | 1.79 m/s, 0° | 21 W/m² | - |
| 1778026804 | 27.22° C | 79% | 1005.6 hPa | 0 mm | 5.36 m/s, 0° | 35 W/m² | - |
| 1778026742 | 27.22° C | 79% | 1005.7 hPa | 0 mm | 2.24 m/s, 0° | 35 W/m² | - |
| 1778026683 | 27.22° C | 79% | 1005.6 hPa | 0 mm | 2.24 m/s, 0° | 35 W/m² | - |
* Rain latest hour (hover to see other rain measurements)
** Current wind speed in m/s (hover to see current wind gust speed)